Council Hill, Oklahoma
Current Conditions -  °F | °C
As of 9:53 AM on Thursday 30 Oct 2014 (Local Time) from KMKO Reporting Station
Scattered Clouds Scattered Clouds  
Wind Chill: 55°   Ceiling: Unl
Heat Index: 55°   Visibility: 10mi
Dew Point: 49°   Wind: 8mph
Humidity: 80%   Direction: 180°S
Pressure: 30.15"   Gusts: NA
Location:  35.56°N, 95.65°W
Report Text: KMKO 301453Z AUTO 18007KT 10SM SCT090 13/09 A3015 RMK AO2 SLP207 T01280094 51003
Loading
Personal Weather Stations






























Interactive Weather Map New forecast layout! Learn more

10-Day Weather Forecast

Advertisements
Track Severe Weather on mobile